createdAt,value
2023-08-15T00:00:25.185Z,101067.97
2023-08-15T00:02:53.230Z,101073.38
2023-08-15T00:05:21.194Z,101054.06
2023-08-15T00:08:03.235Z,101025.59
2023-08-15T00:10:31.264Z,101011.09
2023-08-15T00:12:59.317Z,101010.88
2023-08-15T00:15:27.548Z,101012.31
2023-08-15T00:17:55.500Z,101010.66
2023-08-15T00:20:23.746Z,101012.72
2023-08-15T00:22:51.740Z,101000.88
2023-08-15T00:25:21.355Z,100973.88
2023-08-15T00:27:49.290Z,100959.53
2023-08-15T00:30:17.310Z,100969.53
2023-08-15T00:32:45.252Z,100977.84
2023-08-15T00:35:13.751Z,101009.81
2023-08-15T00:37:41.676Z,101074.88
2023-08-15T00:40:10.809Z,101108.09
2023-08-15T00:42:40.149Z,101117.84
2023-08-15T00:45:08.932Z,101108.66
2023-08-15T00:47:37.101Z,101038.47
2023-08-15T00:50:05.841Z,101031.59
2023-08-15T00:52:33.784Z,101016.88
2023-08-15T00:55:02.033Z,100996.53
2023-08-15T00:57:30.135Z,101011.91
2023-08-15T00:59:59.616Z,101029.75
2023-08-15T01:02:27.615Z,101045.75
2023-08-15T01:04:55.582Z,101070.22
2023-08-15T01:07:23.727Z,101077.06
2023-08-15T01:09:51.766Z,101069.38
2023-08-15T01:12:25.603Z,101075.78
2023-08-15T01:14:57.531Z,101068.72
2023-08-15T01:17:30.960Z,101065.41
2023-08-15T01:20:00.103Z,101050.47
2023-08-15T01:22:30.216Z,101041.75
2023-08-15T01:25:00.268Z,101034.69
2023-08-15T01:27:28.169Z,101031.75
2023-08-15T01:29:56.563Z,101027.63
2023-08-15T01:32:29.620Z,101003.97
2023-08-15T01:35:05.751Z,100998.78
2023-08-15T01:37:33.951Z,100995.06
2023-08-15T01:40:04.924Z,100987.16
2023-08-15T01:42:33.692Z,100978.63
2023-08-15T01:45:02.776Z,100981.94
2023-08-15T01:47:32.588Z,100977.59
2023-08-15T01:50:01.053Z,100984.03
2023-08-15T01:52:29.026Z,100979.50
2023-08-15T01:54:57.042Z,100981.34
2023-08-15T01:57:26.323Z,100974.94
2023-08-15T01:59:54.936Z,100969.09
2023-08-15T02:02:22.861Z,100964.56
2023-08-15T02:04:50.942Z,100967.69
2023-08-15T02:07:19.628Z,100971.19
2023-08-15T02:09:47.830Z,100963.72
2023-08-15T02:12:16.789Z,100951.66
2023-08-15T02:14:46.814Z,100960.41
2023-08-15T02:17:14.749Z,100954.56
2023-08-15T02:19:43.214Z,100946.94
2023-08-15T02:22:11.115Z,100946.28
2023-08-15T02:24:39.086Z,100937.78
2023-08-15T02:27:07.259Z,100938.84
2023-08-15T02:29:35.254Z,100927.41
2023-08-15T02:32:04.924Z,100928.44
2023-08-15T02:34:32.863Z,100918.47
2023-08-15T02:37:00.824Z,100913.31
2023-08-15T02:39:28.762Z,100911.41
2023-08-15T02:41:56.662Z,100906.44
2023-08-15T02:44:24.754Z,100915.75
2023-08-15T02:46:52.845Z,100912.69
2023-08-15T02:49:22.250Z,100909.34
2023-08-15T02:51:50.788Z,100904.56
2023-08-15T02:54:18.756Z,100901.88
2023-08-15T02:56:46.744Z,100903.75
2023-08-15T02:59:14.690Z,100906.44
2023-08-15T03:01:42.634Z,100902.69
2023-08-15T03:04:11.173Z,100905.59
2023-08-15T03:06:40.382Z,100909.13
2023-08-15T03:09:08.223Z,100912.66
2023-08-15T03:11:36.129Z,100917.22
2023-08-15T03:14:04.122Z,100920.13
2023-08-15T03:16:32.094Z,100915.56
2023-08-15T03:19:00.080Z,100927.81
2023-08-15T03:21:28.200Z,100925.13
2023-08-15T03:23:58.080Z,100922.00
2023-08-15T03:26:27.071Z,100945.03
2023-08-15T03:28:57.325Z,100945.25
2023-08-15T03:31:25.657Z,100952.50
2023-08-15T03:33:57.640Z,100949.59
2023-08-15T03:36:26.028Z,100958.31
2023-08-15T03:38:54.757Z,100966.59
2023-08-15T03:41:23.985Z,100975.31
2023-08-15T03:43:51.894Z,100979.66
2023-08-15T03:46:21.100Z,100979.63
2023-08-15T03:48:49.071Z,100977.78
2023-08-15T03:51:32.379Z,100973.00
2023-08-15T03:54:05.234Z,100981.91
2023-08-15T03:56:34.572Z,100986.09
2023-08-15T03:59:02.493Z,100993.50
2023-08-15T04:01:30.562Z,100980.25
2023-08-15T04:03:58.889Z,100984.19
2023-08-15T04:06:26.820Z,100999.31
2023-08-15T04:08:54.760Z,101014.69
2023-08-15T04:11:22.702Z,101015.69
2023-08-15T04:13:52.073Z,101014.91
2023-08-15T04:16:20.102Z,101013.84
2023-08-15T04:18:48.113Z,101021.53
2023-08-15T04:21:16.176Z,101034.56
2023-08-15T04:23:43.993Z,101029.84
2023-08-15T04:26:12.653Z,101039.13
2023-08-15T04:28:40.535Z,101041.41
2023-08-15T04:31:09.931Z,101037.72
2023-08-15T04:33:37.923Z,101033.16
2023-08-15T04:36:05.992Z,101020.91
2023-08-15T04:38:34.235Z,101025.88
2023-08-15T04:41:02.720Z,101029.00
2023-08-15T04:43:30.570Z,101034.56
2023-08-15T04:45:58.565Z,101034.97
2023-08-15T04:48:27.896Z,101037.91
2023-08-15T04:50:56.055Z,101043.38
2023-08-15T04:53:23.965Z,101042.50
2023-08-15T04:55:52.220Z,101037.59
2023-08-15T04:58:20.154Z,101038.00
2023-08-15T05:00:48.815Z,101031.94
2023-08-15T05:03:16.730Z,101035.06
2023-08-15T05:05:46.198Z,101034.19
2023-08-15T05:08:14.318Z,101036.13
2023-08-15T05:10:42.196Z,101035.09
2023-08-15T05:13:10.621Z,101044.66
2023-08-15T05:15:38.740Z,101034.28
2023-08-15T05:18:07.716Z,101046.75
2023-08-15T05:20:35.669Z,101036.38
2023-08-15T05:23:07.036Z,101045.09
2023-08-15T05:25:36.618Z,101047.59
2023-08-15T05:28:06.044Z,101043.03
2023-08-15T05:30:34.189Z,101049.25
2023-08-15T05:33:03.595Z,101041.81
2023-08-15T05:35:31.686Z,101038.44
2023-08-15T05:37:59.915Z,101050.72
2023-08-15T05:40:30.970Z,101053.22
2023-08-15T05:42:58.881Z,101049.47
2023-08-15T05:45:26.787Z,101051.75
2023-08-15T05:47:54.769Z,101045.31
2023-08-15T05:50:22.882Z,101053.00
2023-08-15T05:52:50.746Z,101057.19
2023-08-15T05:55:18.857Z,101052.63
2023-08-15T05:57:48.152Z,101056.34
2023-08-15T06:00:16.287Z,101056.78
2023-08-15T06:02:44.259Z,101060.06
2023-08-15T06:05:12.239Z,101054.28
2023-08-15T06:07:42.041Z,101063.47
2023-08-15T06:10:10.488Z,101068.00
2023-08-15T06:12:38.464Z,101065.94
2023-08-15T06:15:08.561Z,101063.41
2023-08-15T06:17:36.828Z,101063.22
2023-08-15T06:20:06.592Z,101058.44
2023-08-15T06:22:34.553Z,101055.09
2023-08-15T06:25:03.266Z,101062.59
2023-08-15T06:27:31.255Z,101062.97
2023-08-15T06:29:59.170Z,101055.00
2023-08-15T06:32:29.465Z,101057.06
2023-08-15T06:34:57.700Z,101047.00
2023-08-15T06:37:25.805Z,101051.13
2023-08-15T06:39:53.726Z,101051.88
2023-08-15T06:42:21.597Z,101052.03
2023-08-15T06:44:52.010Z,101047.00
2023-08-15T06:47:20.030Z,101043.38
2023-08-15T06:49:49.514Z,101042.50
2023-08-15T06:52:17.474Z,101050.41
2023-08-15T06:54:45.434Z,101068.69
2023-08-15T06:57:13.358Z,101062.78
2023-08-15T06:59:41.377Z,101072.13
2023-08-15T07:02:09.359Z,101074.69
2023-08-15T07:04:41.243Z,101069.63
2023-08-15T07:07:10.864Z,101064.91
2023-08-15T07:09:38.787Z,101065.75
2023-08-15T07:12:07.118Z,101065.00
2023-08-15T07:14:35.027Z,101051.25
2023-08-15T07:17:03.397Z,101053.66
2023-08-15T07:19:31.341Z,101055.81
2023-08-15T07:21:59.282Z,101053.47
2023-08-15T07:24:28.719Z,101054.88
2023-08-15T07:26:56.730Z,101052.75
2023-08-15T07:29:24.571Z,101059.25
2023-08-15T07:31:52.615Z,101046.09
2023-08-15T07:34:20.815Z,101039.00
2023-08-15T07:36:50.034Z,101055.47
2023-08-15T07:39:17.956Z,101052.22
2023-08-15T07:41:47.178Z,101057.03
2023-08-15T07:44:15.263Z,101054.75
2023-08-15T07:46:43.168Z,101042.03
2023-08-15T07:49:11.345Z,101040.34
2023-08-15T07:51:39.254Z,101050.19
2023-08-15T07:54:07.294Z,101052.69
2023-08-15T07:56:35.345Z,101052.44
2023-08-15T07:59:05.367Z,101052.50
2023-08-15T08:01:33.298Z,101054.63
2023-08-15T08:04:01.775Z,101055.19
2023-08-15T08:09:01.129Z,101046.69
2023-08-15T08:11:29.017Z,101048.38
2023-08-15T08:13:57.058Z,101049.28
2023-08-15T08:16:26.382Z,101054.16
2023-08-15T08:18:54.321Z,101055.31
2023-08-15T08:21:22.244Z,101052.34
2023-08-15T08:23:50.245Z,101057.97
2023-08-15T08:26:18.140Z,101053.75
2023-08-15T08:28:46.068Z,101061.06
2023-08-15T08:31:14.116Z,101057.94
2023-08-15T08:33:43.380Z,101057.28
2023-08-15T08:36:11.284Z,101061.41
2023-08-15T08:38:39.294Z,101069.44
2023-08-15T08:41:07.331Z,101062.00
2023-08-15T08:43:35.758Z,101074.94
2023-08-15T08:46:06.084Z,101065.94
2023-08-15T08:48:36.372Z,101073.06
2023-08-15T08:51:07.298Z,101081.25
2023-08-15T08:53:35.251Z,101072.56
2023-08-15T08:56:03.668Z,101068.94
2023-08-15T08:58:32.212Z,101081.22
2023-08-15T09:01:01.010Z,101086.69
2023-08-15T09:03:29.417Z,101081.06
2023-08-15T09:05:57.506Z,101092.66
2023-08-15T09:08:26.968Z,101094.63
2023-08-15T09:10:54.801Z,101095.75
2023-08-15T09:13:23.607Z,101088.34
2023-08-15T09:15:52.150Z,101100.63
2023-08-15T09:18:23.133Z,101083.16
2023-08-15T09:20:51.067Z,101080.56
2023-08-15T09:23:18.979Z,101079.88
2023-08-15T09:25:49.917Z,101071.34
2023-08-15T09:28:18.270Z,101079.31
2023-08-15T09:30:53.714Z,101088.94
2023-08-15T09:33:21.918Z,101088.72
2023-08-15T09:35:58.576Z,101082.66
2023-08-15T09:38:27.880Z,101077.00
2023-08-15T09:40:57.222Z,101072.75
2023-08-15T09:43:25.278Z,101061.78
2023-08-15T09:45:53.436Z,101063.25
2023-08-15T09:48:21.757Z,101070.22
2023-08-15T09:50:50.406Z,101079.59
2023-08-15T09:53:18.494Z,101084.88
2023-08-15T09:55:46.690Z,101087.44
2023-08-15T09:58:17.788Z,101074.78
2023-08-15T10:00:46.746Z,101071.38
2023-08-15T10:03:17.141Z,101068.47
2023-08-15T10:05:47.741Z,101063.91
2023-08-15T10:08:15.858Z,101067.78
2023-08-15T10:10:44.555Z,101052.94
2023-08-15T10:13:12.746Z,101059.41
2023-08-15T10:15:42.388Z,101056.00
2023-08-15T10:18:11.408Z,101060.84
2023-08-15T10:20:41.343Z,101058.59
2023-08-15T10:23:10.620Z,101052.69
2023-08-15T10:25:40.534Z,101046.38
2023-08-15T10:28:13.340Z,101039.78
2023-08-15T10:30:50.858Z,101025.81
2023-08-15T10:33:21.267Z,101018.88
2023-08-15T10:35:52.041Z,101014.56
2023-08-15T10:38:22.082Z,101017.06
2023-08-15T10:40:51.234Z,101012.59
2023-08-15T10:43:19.180Z,101014.50
2023-08-15T10:45:51.842Z,101022.25
2023-08-15T10:48:41.065Z,101024.03
2023-08-15T10:51:22.364Z,101009.06
2023-08-15T10:53:50.771Z,100991.66
2023-08-15T10:56:19.843Z,101002.38
2023-08-15T10:58:48.161Z,100995.34
2023-08-15T11:01:19.875Z,101004.63
2023-08-15T11:03:49.596Z,101002.84
2023-08-15T11:06:17.871Z,101003.69
2023-08-15T11:08:48.233Z,101013.03
2023-08-15T11:11:17.246Z,101013.31
2023-08-15T11:13:47.065Z,101019.09
2023-08-15T11:16:16.811Z,101023.28
2023-08-15T11:18:46.525Z,101021.59
2023-08-15T11:21:15.524Z,101035.16
2023-08-15T11:23:43.856Z,101030.91
2023-08-15T11:26:13.211Z,101028.19
2023-08-15T11:28:41.144Z,101029.41
2023-08-15T11:31:21.904Z,101026.78
2023-08-15T11:33:53.393Z,101035.09
2023-08-15T11:36:23.044Z,101037.03
2023-08-15T11:38:50.963Z,101041.84
2023-08-15T11:41:19.054Z,101037.84
2023-08-15T11:43:47.161Z,101039.06
2023-08-15T11:46:15.371Z,101039.72
2023-08-15T11:48:45.466Z,101025.88
2023-08-15T11:51:20.488Z,101028.47
2023-08-15T11:53:52.091Z,101026.28
2023-08-15T11:56:20.021Z,101034.97
2023-08-15T11:58:47.948Z,101028.75
2023-08-15T12:01:16.482Z,101036.09
2023-08-15T12:03:44.506Z,101034.16
2023-08-15T12:06:15.650Z,101037.06
2023-08-15T12:08:46.302Z,101038.09
2023-08-15T12:11:15.816Z,101024.72
2023-08-15T12:13:44.107Z,101027.25
2023-08-15T12:16:12.249Z,101027.19
2023-08-15T12:18:40.838Z,101022.75
2023-08-15T12:21:13.267Z,101024.06
2023-08-15T12:23:43.335Z,101021.41
2023-08-15T12:26:11.626Z,101014.69
2023-08-15T12:28:39.682Z,101022.88
2023-08-15T12:31:07.892Z,101012.25
2023-08-15T12:33:47.392Z,101015.75
2023-08-15T12:36:16.608Z,101016.47
2023-08-15T12:38:46.084Z,101013.63
2023-08-15T12:41:15.267Z,101010.25
2023-08-15T12:43:43.931Z,101016.91
2023-08-15T12:46:12.368Z,101016.03
2023-08-15T12:48:40.362Z,101025.28
2023-08-15T12:51:08.285Z,101019.94
2023-08-15T12:53:36.357Z,101022.44
2023-08-15T12:56:06.097Z,101012.50
2023-08-15T12:58:34.045Z,101018.75
2023-08-15T13:01:02.525Z,101008.06
2023-08-15T13:03:31.830Z,101008.81
2023-08-15T13:05:59.994Z,101005.03
2023-08-15T13:08:27.913Z,101013.59
2023-08-15T13:10:56.456Z,101005.81
2023-08-15T13:13:25.918Z,101003.47
2023-08-15T13:15:55.981Z,101016.34
2023-08-15T13:18:24.055Z,101006.47
2023-08-15T13:20:52.018Z,101010.28
2023-08-15T13:23:22.636Z,101010.25
2023-08-15T13:25:50.638Z,101002.97
2023-08-15T13:28:18.669Z,100996.09
2023-08-15T13:30:48.566Z,101000.88
2023-08-15T13:33:17.604Z,101013.38
2023-08-15T13:35:46.694Z,100995.00
2023-08-15T13:38:14.952Z,101001.75
2023-08-15T13:40:42.958Z,101000.88
2023-08-15T13:43:10.815Z,101003.06
2023-08-15T13:45:38.794Z,100991.13
2023-08-15T13:48:08.770Z,100986.19
2023-08-15T13:50:36.864Z,100981.34
2023-08-15T13:53:04.967Z,100989.66
2023-08-15T13:55:34.433Z,100990.31
2023-08-15T13:58:02.922Z,100987.91
2023-08-15T14:00:33.240Z,100983.59
2023-08-15T14:03:01.256Z,100986.13
2023-08-15T14:05:30.651Z,100976.03
2023-08-15T14:07:58.525Z,100979.34
2023-08-15T14:10:26.674Z,100978.44
2023-08-15T14:12:54.559Z,100979.78
2023-08-15T14:15:22.768Z,100981.03
2023-08-15T14:17:50.754Z,100980.34
2023-08-15T14:20:20.011Z,100977.16
2023-08-15T14:22:49.299Z,100980.56
2023-08-15T14:25:17.506Z,100981.72
2023-08-15T14:27:45.604Z,100982.84
2023-08-15T14:30:14.813Z,100988.03
2023-08-15T14:32:42.994Z,100988.13
2023-08-15T14:35:11.007Z,100984.50
2023-08-15T14:37:40.369Z,100985.50
2023-08-15T14:40:10.617Z,100977.13
2023-08-15T14:42:39.122Z,100982.84
2023-08-15T14:45:10.831Z,100964.97
2023-08-15T14:47:40.069Z,100965.47
2023-08-15T14:50:08.885Z,100972.63
2023-08-15T14:52:41.946Z,100971.25
2023-08-15T14:55:12.384Z,100968.22
2023-08-15T14:57:40.744Z,100973.13
2023-08-15T15:00:10.233Z,100974.78
2023-08-15T15:02:39.230Z,100970.84
2023-08-15T15:05:08.483Z,100967.53
2023-08-15T15:07:36.439Z,100968.69
2023-08-15T15:10:04.553Z,100962.22
2023-08-15T15:12:34.079Z,100967.78
2023-08-15T15:15:02.023Z,100971.94
2023-08-15T15:17:31.018Z,100982.31
2023-08-15T15:19:59.019Z,100972.47
2023-08-15T15:22:26.928Z,100974.09
2023-08-15T15:24:55.117Z,100974.59
2023-08-15T15:27:23.033Z,100969.09
2023-08-15T15:29:52.274Z,100974.16
2023-08-15T15:32:20.438Z,100983.41
2023-08-15T15:34:48.550Z,100974.94
2023-08-15T15:37:16.477Z,100983.50
2023-08-15T15:39:44.448Z,100980.28
2023-08-15T15:42:12.378Z,100984.69
2023-08-15T15:44:40.274Z,100980.97
2023-08-15T15:47:09.689Z,100980.34
2023-08-15T15:49:37.647Z,100985.66
2023-08-15T15:52:05.848Z,100986.31
2023-08-15T15:54:33.710Z,100978.81
2023-08-15T15:57:01.621Z,100981.94
2023-08-15T15:59:29.578Z,100993.78
2023-08-15T16:01:57.561Z,100999.22
2023-08-15T16:04:26.934Z,100985.22
2023-08-15T16:06:54.867Z,101000.09
2023-08-15T16:09:22.828Z,100996.81
2023-08-15T16:11:50.809Z,100999.72
2023-08-15T16:14:18.742Z,101007.31
2023-08-15T16:16:46.892Z,101013.38
2023-08-15T16:19:14.734Z,101012.56
2023-08-15T16:21:44.003Z,101009.19
2023-08-15T16:24:11.929Z,101025.88
2023-08-15T16:26:39.843Z,101036.59
2023-08-15T16:29:07.738Z,101037.13
2023-08-15T16:31:35.813Z,101040.88
2023-08-15T16:34:03.821Z,101033.47
2023-08-15T16:36:31.777Z,101033.75
2023-08-15T16:39:01.041Z,101041.72
2023-08-15T16:41:28.905Z,101036.75
2023-08-15T16:43:57.512Z,101030.44
2023-08-15T16:46:25.585Z,101039.00
2023-08-15T16:48:53.601Z,101041.13
2023-08-15T16:51:21.576Z,101026.88
2023-08-15T16:53:49.498Z,101031.88
2023-08-15T16:56:18.799Z,101034.84
2023-08-15T16:58:46.800Z,101038.38
2023-08-15T17:01:14.845Z,101032.59
2023-08-15T17:03:43.080Z,101033.13
2023-08-15T17:06:11.181Z,101027.09
2023-08-15T17:08:39.018Z,101022.19
2023-08-15T17:11:06.946Z,101030.06
2023-08-15T17:13:36.379Z,101028.69
2023-08-15T17:16:04.376Z,101031.41
2023-08-15T17:18:32.232Z,101027.28
2023-08-15T17:21:02.046Z,101024.78
2023-08-15T17:23:30.015Z,101023.97
2023-08-15T17:25:57.970Z,101025.34
2023-08-15T17:28:25.897Z,101022.00
2023-08-15T17:30:55.938Z,101022.81
2023-08-15T17:33:25.356Z,101027.22
2023-08-15T17:35:53.284Z,101038.41
2023-08-15T17:38:21.159Z,101040.88
2023-08-15T17:40:49.067Z,101044.34
2023-08-15T17:43:19.357Z,101047.00
2023-08-15T17:45:47.977Z,101051.63
2023-08-15T17:48:17.675Z,101060.81
2023-08-15T17:50:47.082Z,101055.59
2023-08-15T17:53:15.028Z,101058.59
2023-08-15T17:55:43.091Z,101061.00
2023-08-15T17:58:11.047Z,101055.50
2023-08-15T18:00:38.982Z,101062.59
2023-08-15T18:03:07.573Z,101066.13
2023-08-15T18:05:36.935Z,101069.09
2023-08-15T18:08:07.804Z,101075.69
2023-08-15T18:10:35.770Z,101081.16
2023-08-15T18:13:03.642Z,101084.72
2023-08-15T18:15:31.477Z,101082.28
2023-08-15T18:17:59.507Z,101086.22
2023-08-15T18:20:27.478Z,101091.91
2023-08-15T18:22:56.775Z,101100.59
2023-08-15T18:25:24.679Z,101108.19
2023-08-15T18:27:52.596Z,101118.00
2023-08-15T18:30:20.523Z,101117.19
2023-08-15T18:32:48.514Z,101112.13
2023-08-15T18:35:16.606Z,101109.72
2023-08-15T18:37:46.293Z,101103.59
2023-08-15T18:40:17.149Z,101115.59
2023-08-15T18:42:45.423Z,101114.22
2023-08-15T18:45:13.788Z,101118.81
2023-08-15T18:47:41.732Z,101114.03
2023-08-15T18:50:10.574Z,101110.97
2023-08-15T18:52:38.523Z,101113.16
2023-08-15T18:55:07.943Z,101112.16
2023-08-15T18:57:37.117Z,101120.13
2023-08-15T19:00:08.199Z,101119.47
2023-08-15T19:02:36.228Z,101125.25
2023-08-15T19:05:04.285Z,101132.38
2023-08-15T19:07:32.183Z,101134.00
2023-08-15T19:10:00.146Z,101139.47
2023-08-15T19:12:28.187Z,101139.47
2023-08-15T19:14:58.771Z,101141.63
2023-08-15T19:17:26.695Z,101151.72
2023-08-15T19:19:54.653Z,101152.81
2023-08-15T19:22:22.930Z,101148.75
2023-08-15T19:24:51.693Z,101144.81
2023-08-15T19:27:19.744Z,101145.63
2023-08-15T19:29:48.192Z,101146.22
2023-08-15T19:32:17.592Z,101151.09
2023-08-15T19:34:48.934Z,101150.13
2023-08-15T19:37:23.387Z,101146.66
2023-08-15T19:39:59.339Z,101150.94
2023-08-15T19:42:27.223Z,101144.25
2023-08-15T19:44:55.079Z,101135.63
2023-08-15T19:47:24.695Z,101135.00
2023-08-15T19:49:52.555Z,101137.41
2023-08-15T19:52:21.701Z,101137.41
2023-08-15T19:54:50.425Z,101146.16
2023-08-15T19:57:18.301Z,101143.69
2023-08-15T19:59:46.211Z,101148.78
2023-08-15T20:02:14.965Z,101146.31
2023-08-15T20:04:44.454Z,101149.28
2023-08-15T20:07:12.421Z,101147.38
2023-08-15T20:09:41.568Z,101153.91
2023-08-15T20:12:10.857Z,101163.03
2023-08-15T20:14:38.778Z,101155.06
2023-08-15T20:17:06.703Z,101167.09
2023-08-15T20:19:34.672Z,101163.69
2023-08-15T20:22:03.948Z,101170.44
2023-08-15T20:24:32.194Z,101161.34
2023-08-15T20:27:00.069Z,101168.00
2023-08-15T20:29:28.547Z,101170.38
2023-08-15T20:31:56.451Z,101168.75
2023-08-15T20:34:24.481Z,101169.38
2023-08-15T20:36:52.727Z,101171.94
2023-08-15T20:39:22.100Z,101181.66
2023-08-15T20:41:50.066Z,101174.09
2023-08-15T20:44:18.235Z,101169.94
2023-08-15T20:46:46.382Z,101162.84
2023-08-15T20:49:14.436Z,101161.78
2023-08-15T20:51:42.324Z,101162.03
2023-08-15T20:54:12.368Z,101154.34
2023-08-15T20:56:41.734Z,101163.78
2023-08-15T20:59:09.763Z,101164.84
2023-08-15T21:01:37.671Z,101166.84
2023-08-15T21:04:06.470Z,101170.50
2023-08-15T21:06:34.494Z,101173.25
2023-08-15T21:09:02.397Z,101180.59
2023-08-15T21:11:30.362Z,101175.56
2023-08-15T21:13:59.985Z,101178.53
2023-08-15T21:16:28.146Z,101195.97
2023-08-15T21:18:56.197Z,101191.41
2023-08-15T21:21:24.151Z,101202.09
2023-08-15T21:23:52.000Z,101221.72
2023-08-15T21:26:19.957Z,101216.00
2023-08-15T21:28:47.905Z,101207.22
2023-08-15T21:31:17.294Z,101215.00
2023-08-15T21:33:45.232Z,101218.59
2023-08-15T21:36:13.104Z,101220.16
2023-08-15T21:38:41.830Z,101215.94
2023-08-15T21:41:09.751Z,101215.28
2023-08-15T21:43:38.067Z,101217.16
2023-08-15T21:46:06.010Z,101211.06
2023-08-15T21:48:35.456Z,101204.56
2023-08-15T21:51:03.596Z,101206.00
2023-08-15T21:53:31.520Z,101206.81
2023-08-15T21:55:59.470Z,101212.72
2023-08-15T21:58:27.346Z,101216.03
2023-08-15T22:00:55.248Z,101219.34
2023-08-15T22:03:23.180Z,101221.44
2023-08-15T22:05:52.495Z,101221.75
2023-08-15T22:08:20.434Z,101218.16
2023-08-15T22:10:48.662Z,101228.47
2023-08-15T22:13:16.593Z,101228.41
2023-08-15T22:15:45.614Z,101231.22
2023-08-15T22:18:20.271Z,101229.78
2023-08-15T22:20:49.421Z,101225.34
2023-08-15T22:23:18.745Z,101221.75
2023-08-15T22:25:46.994Z,101214.25
2023-08-15T22:28:15.265Z,101225.13
2023-08-15T22:30:43.240Z,101230.13
2023-08-15T22:33:11.171Z,101226.34
2023-08-15T22:35:39.674Z,101228.41
2023-08-15T22:38:08.307Z,101227.13
2023-08-15T22:40:37.766Z,101227.34
2023-08-15T22:43:07.703Z,101229.69
2023-08-15T22:45:35.822Z,101232.59
2023-08-15T22:48:03.817Z,101243.97
2023-08-15T22:50:31.772Z,101239.97
2023-08-15T22:52:59.783Z,101257.03
2023-08-15T22:55:29.672Z,101259.16
2023-08-15T22:57:58.963Z,101247.84
2023-08-15T23:00:27.217Z,101249.94
2023-08-15T23:02:55.217Z,101256.84
2023-08-15T23:05:23.180Z,101263.94
2023-08-15T23:07:51.085Z,101265.31
2023-08-15T23:10:19.134Z,101280.31
2023-08-15T23:12:47.053Z,101279.97
2023-08-15T23:15:16.330Z,101284.69
2023-08-15T23:17:44.310Z,101285.03
2023-08-15T23:20:12.948Z,101293.22
2023-08-15T23:22:40.903Z,101296.72
2023-08-15T23:25:11.261Z,101293.59
2023-08-15T23:27:39.931Z,101295.91
2023-08-15T23:30:09.595Z,101290.09
2023-08-15T23:32:39.276Z,101285.25
2023-08-15T23:35:07.991Z,101295.53
2023-08-15T23:37:36.429Z,101302.84
2023-08-15T23:40:04.896Z,101316.56
2023-08-15T23:42:33.224Z,101314.91
2023-08-15T23:45:01.176Z,101314.56
2023-08-15T23:47:29.106Z,101321.53
2023-08-15T23:49:58.836Z,101309.53
2023-08-15T23:52:27.095Z,101299.06
2023-08-15T23:54:55.119Z,101298.91
2023-08-15T23:57:23.303Z,101310.78
2023-08-15T23:59:51.491Z,101305.19
